Norfolk International Airport
KORF : now visible

Airfield :











YOU CAN JOIN US ON...

 
LOGIN :

Register | Disclaimer

   EN    FR    IT 

 









Legend :    VFR   Marginal VFR   IFR   Intensive IFR   Very Intensive IFR
Visi :
Ceiling :
>= 8 km
>= 3000ft
5 to 8 km
1000 to 3000 ft
1500m to 5 km
500 to 1000 ft
800 to 1500m
200 to 500 ft
< 800m
< 200 ft
Symbols :   Thunderstorms  Fog  Heavy snow  Heavy precipitations  Wind > 20 kt






- Airport Elevation : 26 ft
- IATA code : ORF


KORF - Norfolk International

CURRENT METAR :
  • 231851Z 05008KT 10SM BKN055 28/19 A2992 RMK AO2 SLP130 T02780194

EXPIRED METARs :
  • 231751Z 26008G17KT 10SM FEW055 32/18 A2993 RMK AO2 SLP135 T03170178 10317 20233 55006
  • 231651Z 26009G20KT 10SM FEW049 SCT085 31/18 A2993 RMK AO2 SLP133 T03060178
  • 231551Z 22013G19KT 10SM CLR 30/18 A2995 RMK AO2 SLP140 T03000178
  • 231451Z 24010KT 10SM CLR 28/17 A2995 RMK AO2 SLP141 T02830172 58005

TAF KORF
Valid from the 23 at 18:00 until the 24 at 18:00 UTC


231724Z 2318/2418 25009G18KT P6SM SCT050 SCT250
FM232200 20008KT P6SM BKN060
FM240200 22005KT P6SM BKN080
KZDC FIR / North America



MET'MAP, your aeronautical weather chart ! - Copyright ORBIFLY December 2007 - Disclaimer

ORBIFLY MET'MAP TEAM :

Programming & Development : Alexandra Zaïnal
Original concept : Baudouin d'Aumeries
Technical & hardware support : Manuel Goepfert
Assistance : Marc-Olivier Méhu




SOURCES & CREDITS :

   NOAA       Earth
Advisory